sensor_id;sensor_type;location;lat;lon;timestamp;P1;durP1;ratioP1;P2;durP2;ratioP2
15629;SDS011;7914;50.842;0.166;2023-07-31T12:06:32;11.80;;;2.40;;
15629;SDS011;7914;50.842;0.166;2023-07-31T12:09:03;4.75;;;1.65;;
15629;SDS011;7914;50.842;0.166;2023-07-31T12:11:30;5.97;;;1.92;;
15629;SDS011;7914;50.842;0.166;2023-07-31T12:13:56;5.57;;;1.70;;
15629;SDS011;7914;50.842;0.166;2023-07-31T12:16:22;7.40;;;1.90;;
15629;SDS011;7914;50.842;0.166;2023-07-31T12:18:51;5.75;;;1.60;;
15629;SDS011;7914;50.842;0.166;2023-07-31T12:21:17;6.07;;;1.40;;
15629;SDS011;7914;50.842;0.166;2023-07-31T12:23:45;6.13;;;1.20;;
15629;SDS011;7914;50.842;0.166;2023-07-31T12:26:14;7.00;;;1.50;;
15629;SDS011;7914;50.842;0.166;2023-07-31T12:28:42;5.53;;;1.65;;
15629;SDS011;7914;50.842;0.166;2023-07-31T12:31:10;3.97;;;1.10;;
15629;SDS011;7914;50.842;0.166;2023-07-31T12:33:49;9.68;;;1.27;;
15629;SDS011;7914;50.842;0.166;2023-07-31T12:36:16;8.35;;;1.88;;
15629;SDS011;7914;50.842;0.166;2023-07-31T12:38:43;4.47;;;1.40;;
15629;SDS011;7914;50.842;0.166;2023-07-31T12:41:09;5.75;;;1.45;;
15629;SDS011;7914;50.842;0.166;2023-07-31T12:43:36;5.88;;;1.15;;
15629;SDS011;7914;50.842;0.166;2023-07-31T12:46:03;6.45;;;1.95;;
15629;SDS011;7914;50.842;0.166;2023-07-31T12:48:29;7.85;;;1.40;;
15629;SDS011;7914;50.842;0.166;2023-07-31T12:50:56;5.30;;;1.60;;
15629;SDS011;7914;50.842;0.166;2023-07-31T12:53:21;9.95;;;2.08;;
15629;SDS011;7914;50.842;0.166;2023-07-31T12:55:47;6.72;;;1.63;;
15629;SDS011;7914;50.842;0.166;2023-07-31T12:58:12;6.15;;;2.33;;
15629;SDS011;7914;50.842;0.166;2023-07-31T13:00:38;6.65;;;1.88;;
15629;SDS011;7914;50.842;0.166;2023-07-31T13:03:04;5.65;;;2.08;;
15629;SDS011;7914;50.842;0.166;2023-07-31T13:05:29;6.45;;;2.25;;
15629;SDS011;7914;50.842;0.166;2023-07-31T13:07:56;5.43;;;1.50;;
15629;SDS011;7914;50.842;0.166;2023-07-31T13:10:22;6.78;;;1.38;;
15629;SDS011;7914;50.842;0.166;2023-07-31T13:12:48;7.28;;;1.42;;
15629;SDS011;7914;50.842;0.166;2023-07-31T13:15:14;4.57;;;1.05;;
15629;SDS011;7914;50.842;0.166;2023-07-31T13:17:40;8.57;;;1.33;;
15629;SDS011;7914;50.842;0.166;2023-07-31T13:20:06;4.15;;;1.20;;
15629;SDS011;7914;50.842;0.166;2023-07-31T13:22:32;6.68;;;1.10;;
15629;SDS011;7914;50.842;0.166;2023-07-31T13:24:58;5.50;;;1.00;;
15629;SDS011;7914;50.842;0.166;2023-07-31T13:27:23;5.75;;;1.10;;
15629;SDS011;7914;50.842;0.166;2023-07-31T13:29:49;6.45;;;1.75;;
15629;SDS011;7914;50.842;0.166;2023-07-31T13:32:16;7.50;;;2.20;;
15629;SDS011;7914;50.842;0.166;2023-07-31T13:34:43;7.20;;;2.25;;
15629;SDS011;7914;50.842;0.166;2023-07-31T13:37:08;6.97;;;2.28;;
15629;SDS011;7914;50.842;0.166;2023-07-31T13:39:34;5.55;;;1.38;;
15629;SDS011;7914;50.842;0.166;2023-07-31T13:42:00;6.75;;;1.60;;
15629;SDS011;7914;50.842;0.166;2023-07-31T13:44:27;10.32;;;3.17;;
15629;SDS011;7914;50.842;0.166;2023-07-31T13:46:53;10.88;;;4.82;;
15629;SDS011;7914;50.842;0.166;2023-07-31T13:49:18;7.20;;;2.42;;
15629;SDS011;7914;50.842;0.166;2023-07-31T13:51:44;6.88;;;1.70;;
15629;SDS011;7914;50.842;0.166;2023-07-31T13:54:11;7.50;;;1.30;;
15629;SDS011;7914;50.842;0.166;2023-07-31T13:56:37;8.18;;;1.20;;
15629;SDS011;7914;50.842;0.166;2023-07-31T13:59:03;3.50;;;0.93;;
15629;SDS011;7914;50.842;0.166;2023-07-31T14:01:29;6.18;;;1.02;;
15629;SDS011;7914;50.842;0.166;2023-07-31T14:03:55;5.68;;;1.02;;
15629;SDS011;7914;50.842;0.166;2023-07-31T14:06:20;4.97;;;1.10;;
15629;SDS011;7914;50.842;0.166;2023-07-31T14:08:46;4.10;;;1.10;;
15629;SDS011;7914;50.842;0.166;2023-07-31T14:11:12;6.43;;;1.10;;
15629;SDS011;7914;50.842;0.166;2023-07-31T14:13:38;6.03;;;1.30;;
15629;SDS011;7914;50.842;0.166;2023-07-31T14:16:03;4.78;;;1.17;;
15629;SDS011;7914;50.842;0.166;2023-07-31T14:18:29;7.10;;;1.50;;
15629;SDS011;7914;50.842;0.166;2023-07-31T14:20:55;6.85;;;1.75;;
15629;SDS011;7914;50.842;0.166;2023-07-31T14:23:20;8.00;;;1.58;;
15629;SDS011;7914;50.842;0.166;2023-07-31T14:25:46;4.40;;;1.42;;
15629;SDS011;7914;50.842;0.166;2023-07-31T14:28:12;7.53;;;1.83;;
15629;SDS011;7914;50.842;0.166;2023-07-31T14:30:38;9.05;;;2.22;;
15629;SDS011;7914;50.842;0.166;2023-07-31T14:33:04;7.18;;;2.00;;
15629;SDS011;7914;50.842;0.166;2023-07-31T14:35:29;6.85;;;2.05;;
15629;SDS011;7914;50.842;0.166;2023-07-31T14:37:55;6.60;;;1.30;;
15629;SDS011;7914;50.842;0.166;2023-07-31T14:40:21;7.18;;;2.03;;
15629;SDS011;7914;50.842;0.166;2023-07-31T14:42:46;4.75;;;1.20;;
15629;SDS011;7914;50.842;0.166;2023-07-31T14:45:12;5.13;;;1.70;;
15629;SDS011;7914;50.842;0.166;2023-07-31T14:47:38;7.60;;;2.58;;
15629;SDS011;7914;50.842;0.166;2023-07-31T14:50:04;11.73;;;2.10;;
15629;SDS011;7914;50.842;0.166;2023-07-31T14:52:30;7.13;;;1.80;;
15629;SDS011;7914;50.842;0.166;2023-07-31T14:54:55;8.23;;;1.85;;
15629;SDS011;7914;50.842;0.166;2023-07-31T14:57:21;12.57;;;1.58;;
15629;SDS011;7914;50.842;0.166;2023-07-31T14:59:47;10.55;;;1.80;;
15629;SDS011;7914;50.842;0.166;2023-07-31T15:02:13;5.32;;;1.60;;
15629;SDS011;7914;50.842;0.166;2023-07-31T15:04:39;11.35;;;1.80;;
15629;SDS011;7914;50.842;0.166;2023-07-31T15:07:05;10.07;;;2.13;;
15629;SDS011;7914;50.842;0.166;2023-07-31T15:09:31;8.85;;;1.95;;
15629;SDS011;7914;50.842;0.166;2023-07-31T15:11:57;9.05;;;1.67;;
15629;SDS011;7914;50.842;0.166;2023-07-31T15:14:23;5.53;;;2.10;;
15629;SDS011;7914;50.842;0.166;2023-07-31T15:16:50;7.88;;;1.83;;
15629;SDS011;7914;50.842;0.166;2023-07-31T15:19:15;6.53;;;1.70;;
15629;SDS011;7914;50.842;0.166;2023-07-31T15:21:41;10.60;;;1.80;;
15629;SDS011;7914;50.842;0.166;2023-07-31T15:24:07;9.73;;;1.77;;
15629;SDS011;7914;50.842;0.166;2023-07-31T15:26:33;6.80;;;1.67;;
15629;SDS011;7914;50.842;0.166;2023-07-31T15:29:02;7.05;;;1.83;;
15629;SDS011;7914;50.842;0.166;2023-07-31T15:31:41;7.30;;;1.35;;
15629;SDS011;7914;50.842;0.166;2023-07-31T15:34:07;5.55;;;1.45;;
15629;SDS011;7914;50.842;0.166;2023-07-31T15:36:32;6.75;;;2.25;;
15629;SDS011;7914;50.842;0.166;2023-07-31T15:38:58;5.68;;;1.50;;
15629;SDS011;7914;50.842;0.166;2023-07-31T15:41:24;5.93;;;1.52;;
15629;SDS011;7914;50.842;0.166;2023-07-31T15:43:54;5.10;;;1.80;;
15629;SDS011;7914;50.842;0.166;2023-07-31T15:46:20;5.68;;;1.60;;
15629;SDS011;7914;50.842;0.166;2023-07-31T15:48:46;6.00;;;1.40;;
15629;SDS011;7914;50.842;0.166;2023-07-31T15:51:12;11.13;;;2.10;;
15629;SDS011;7914;50.842;0.166;2023-07-31T15:53:38;5.55;;;1.77;;
15629;SDS011;7914;50.842;0.166;2023-07-31T15:56:04;7.00;;;1.58;;
15629;SDS011;7914;50.842;0.166;2023-07-31T15:58:29;8.20;;;1.60;;
15629;SDS011;7914;50.842;0.166;2023-07-31T16:00:55;8.18;;;1.95;;
15629;SDS011;7914;50.842;0.166;2023-07-31T16:03:21;12.60;;;2.47;;
15629;SDS011;7914;50.842;0.166;2023-07-31T16:05:47;7.40;;;1.92;;
15629;SDS011;7914;50.842;0.166;2023-07-31T16:08:13;7.90;;;1.88;;
15629;SDS011;7914;50.842;0.166;2023-07-31T16:10:39;7.90;;;1.90;;
15629;SDS011;7914;50.842;0.166;2023-07-31T16:13:05;7.82;;;2.00;;
15629;SDS011;7914;50.842;0.166;2023-07-31T16:15:30;6.78;;;1.42;;
15629;SDS011;7914;50.842;0.166;2023-07-31T16:17:56;6.35;;;1.60;;
15629;SDS011;7914;50.842;0.166;2023-07-31T16:20:22;7.43;;;1.98;;
15629;SDS011;7914;50.842;0.166;2023-07-31T16:22:48;10.98;;;1.90;;
15629;SDS011;7914;50.842;0.166;2023-07-31T16:25:14;7.25;;;1.55;;
15629;SDS011;7914;50.842;0.166;2023-07-31T16:27:40;8.05;;;1.73;;
15629;SDS011;7914;50.842;0.166;2023-07-31T16:30:06;7.88;;;1.80;;
15629;SDS011;7914;50.842;0.166;2023-07-31T16:32:32;7.90;;;1.67;;
15629;SDS011;7914;50.842;0.166;2023-07-31T16:34:58;8.18;;;1.73;;
15629;SDS011;7914;50.842;0.166;2023-07-31T16:37:24;7.70;;;2.10;;
15629;SDS011;7914;50.842;0.166;2023-07-31T16:39:49;6.35;;;1.88;;
15629;SDS011;7914;50.842;0.166;2023-07-31T16:42:19;5.05;;;1.63;;
15629;SDS011;7914;50.842;0.166;2023-07-31T16:44:45;10.60;;;1.98;;
15629;SDS011;7914;50.842;0.166;2023-07-31T16:47:11;6.72;;;1.40;;
15629;SDS011;7914;50.842;0.166;2023-07-31T16:49:37;11.90;;;2.17;;
15629;SDS011;7914;50.842;0.166;2023-07-31T16:52:03;5.45;;;1.70;;
15629;SDS011;7914;50.842;0.166;2023-07-31T16:54:29;6.85;;;1.77;;
15629;SDS011;7914;50.842;0.166;2023-07-31T16:56:54;7.65;;;1.80;;
15629;SDS011;7914;50.842;0.166;2023-07-31T16:59:20;5.47;;;1.65;;
15629;SDS011;7914;50.842;0.166;2023-07-31T17:01:46;6.38;;;1.98;;
15629;SDS011;7914;50.842;0.166;2023-07-31T17:04:12;6.45;;;1.98;;
15629;SDS011;7914;50.842;0.166;2023-07-31T17:06:38;6.53;;;1.70;;
15629;SDS011;7914;50.842;0.166;2023-07-31T17:09:04;6.15;;;1.63;;
15629;SDS011;7914;50.842;0.166;2023-07-31T17:11:29;6.07;;;1.63;;
15629;SDS011;7914;50.842;0.166;2023-07-31T17:13:55;7.93;;;2.40;;
15629;SDS011;7914;50.842;0.166;2023-07-31T17:16:21;7.05;;;1.65;;
15629;SDS011;7914;50.842;0.166;2023-07-31T17:18:47;6.75;;;1.67;;
15629;SDS011;7914;50.842;0.166;2023-07-31T17:21:13;7.13;;;1.95;;
15629;SDS011;7914;50.842;0.166;2023-07-31T17:23:39;7.82;;;2.00;;
15629;SDS011;7914;50.842;0.166;2023-07-31T17:26:05;7.53;;;2.28;;
15629;SDS011;7914;50.842;0.166;2023-07-31T17:28:32;10.60;;;2.00;;
15629;SDS011;7914;50.842;0.166;2023-07-31T17:30:58;10.73;;;2.35;;
15629;SDS011;7914;50.842;0.166;2023-07-31T17:33:24;7.13;;;2.03;;
15629;SDS011;7914;50.842;0.166;2023-07-31T17:35:50;8.45;;;1.80;;
15629;SDS011;7914;50.842;0.166;2023-07-31T17:38:15;8.98;;;1.73;;
15629;SDS011;7914;50.842;0.166;2023-07-31T17:40:41;7.88;;;1.67;;
15629;SDS011;7914;50.842;0.166;2023-07-31T17:43:07;7.78;;;2.13;;
15629;SDS011;7914;50.842;0.166;2023-07-31T17:45:36;7.40;;;1.98;;
15629;SDS011;7914;50.842;0.166;2023-07-31T17:48:02;6.53;;;1.73;;
15629;SDS011;7914;50.842;0.166;2023-07-31T17:50:28;5.93;;;1.55;;
15629;SDS011;7914;50.842;0.166;2023-07-31T17:52:55;7.40;;;1.60;;
15629;SDS011;7914;50.842;0.166;2023-07-31T17:55:21;8.02;;;1.88;;
15629;SDS011;7914;50.842;0.166;2023-07-31T17:57:46;7.35;;;2.00;;
15629;SDS011;7914;50.842;0.166;2023-07-31T18:00:12;7.32;;;1.83;;
15629;SDS011;7914;50.842;0.166;2023-07-31T18:02:38;9.57;;;2.97;;
15629;SDS011;7914;50.842;0.166;2023-07-31T18:05:04;7.40;;;2.25;;
15629;SDS011;7914;50.842;0.166;2023-07-31T18:07:30;8.15;;;2.40;;
15629;SDS011;7914;50.842;0.166;2023-07-31T18:09:56;9.07;;;2.38;;
15629;SDS011;7914;50.842;0.166;2023-07-31T18:12:22;7.35;;;2.15;;
15629;SDS011;7914;50.842;0.166;2023-07-31T18:14:48;7.72;;;2.58;;
15629;SDS011;7914;50.842;0.166;2023-07-31T18:17:13;6.82;;;2.33;;
15629;SDS011;7914;50.842;0.166;2023-07-31T18:19:39;10.23;;;2.50;;
15629;SDS011;7914;50.842;0.166;2023-07-31T18:22:05;14.00;;;3.08;;
15629;SDS011;7914;50.842;0.166;2023-07-31T18:24:30;7.13;;;2.25;;
15629;SDS011;7914;50.842;0.166;2023-07-31T18:26:56;10.75;;;2.80;;
15629;SDS011;7914;50.842;0.166;2023-07-31T18:29:22;7.85;;;2.00;;
15629;SDS011;7914;50.842;0.166;2023-07-31T18:31:48;11.02;;;2.22;;
15629;SDS011;7914;50.842;0.166;2023-07-31T18:34:14;9.10;;;2.35;;
15629;SDS011;7914;50.842;0.166;2023-07-31T18:36:40;9.43;;;3.03;;
15629;SDS011;7914;50.842;0.166;2023-07-31T18:39:07;7.72;;;2.35;;
15629;SDS011;7914;50.842;0.166;2023-07-31T18:41:33;9.88;;;2.28;;
15629;SDS011;7914;50.842;0.166;2023-07-31T18:43:59;8.27;;;2.38;;
15629;SDS011;7914;50.842;0.166;2023-07-31T18:46:25;7.15;;;2.60;;
15629;SDS011;7914;50.842;0.166;2023-07-31T18:48:50;6.57;;;2.10;;
15629;SDS011;7914;50.842;0.166;2023-07-31T18:51:16;9.93;;;2.47;;
15629;SDS011;7914;50.842;0.166;2023-07-31T18:53:42;11.25;;;3.28;;
15629;SDS011;7914;50.842;0.166;2023-07-31T18:56:08;10.18;;;2.50;;
15629;SDS011;7914;50.842;0.166;2023-07-31T18:58:34;10.75;;;2.80;;
15629;SDS011;7914;50.842;0.166;2023-07-31T19:01:00;13.50;;;3.13;;
15629;SDS011;7914;50.842;0.166;2023-07-31T19:03:25;10.38;;;2.75;;
15629;SDS011;7914;50.842;0.166;2023-07-31T19:05:59;9.55;;;2.67;;
15629;SDS011;7914;50.842;0.166;2023-07-31T19:08:28;11.88;;;2.92;;
15629;SDS011;7914;50.842;0.166;2023-07-31T19:10:55;9.55;;;2.33;;
15629;SDS011;7914;50.842;0.166;2023-07-31T19:13:20;10.75;;;3.25;;
15629;SDS011;7914;50.842;0.166;2023-07-31T19:15:46;11.82;;;2.53;;
15629;SDS011;7914;50.842;0.166;2023-07-31T19:18:14;11.77;;;3.45;;
15629;SDS011;7914;50.842;0.166;2023-07-31T19:20:40;8.07;;;2.13;;
15629;SDS011;7914;50.842;0.166;2023-07-31T19:23:06;9.13;;;2.53;;
15629;SDS011;7914;50.842;0.166;2023-07-31T19:25:32;12.82;;;3.00;;
15629;SDS011;7914;50.842;0.166;2023-07-31T19:27:58;9.85;;;3.05;;
15629;SDS011;7914;50.842;0.166;2023-07-31T19:30:24;10.32;;;2.67;;
15629;SDS011;7914;50.842;0.166;2023-07-31T19:32:50;10.07;;;2.67;;
15629;SDS011;7914;50.842;0.166;2023-07-31T19:35:15;7.43;;;2.28;;
15629;SDS011;7914;50.842;0.166;2023-07-31T19:37:41;9.68;;;2.85;;
15629;SDS011;7914;50.842;0.166;2023-07-31T19:40:07;11.43;;;2.75;;
15629;SDS011;7914;50.842;0.166;2023-07-31T19:42:33;10.38;;;2.30;;
15629;SDS011;7914;50.842;0.166;2023-07-31T19:45:01;10.13;;;3.00;;
15629;SDS011;7914;50.842;0.166;2023-07-31T19:47:30;10.20;;;3.17;;
15629;SDS011;7914;50.842;0.166;2023-07-31T19:49:57;9.23;;;3.15;;
15629;SDS011;7914;50.842;0.166;2023-07-31T19:52:22;8.75;;;2.70;;
15629;SDS011;7914;50.842;0.166;2023-07-31T19:54:49;8.38;;;2.28;;
15629;SDS011;7914;50.842;0.166;2023-07-31T19:57:14;10.40;;;2.35;;
15629;SDS011;7914;50.842;0.166;2023-07-31T19:59:40;9.55;;;2.47;;
15629;SDS011;7914;50.842;0.166;2023-07-31T20:02:07;9.57;;;2.63;;
15629;SDS011;7914;50.842;0.166;2023-07-31T20:04:33;9.15;;;2.75;;
15629;SDS011;7914;50.842;0.166;2023-07-31T20:06:58;9.93;;;2.53;;
15629;SDS011;7914;50.842;0.166;2023-07-31T20:09:24;11.75;;;2.60;;
15629;SDS011;7914;50.842;0.166;2023-07-31T20:11:50;8.98;;;3.03;;
15629;SDS011;7914;50.842;0.166;2023-07-31T20:14:15;9.25;;;2.67;;
15629;SDS011;7914;50.842;0.166;2023-07-31T20:16:41;14.65;;;2.60;;
15629;SDS011;7914;50.842;0.166;2023-07-31T20:19:07;15.43;;;2.97;;
15629;SDS011;7914;50.842;0.166;2023-07-31T20:21:32;10.80;;;3.38;;
15629;SDS011;7914;50.842;0.166;2023-07-31T20:23:58;13.65;;;3.67;;
15629;SDS011;7914;50.842;0.166;2023-07-31T20:26:24;11.85;;;4.82;;
15629;SDS011;7914;50.842;0.166;2023-07-31T20:28:50;11.95;;;3.00;;
15629;SDS011;7914;50.842;0.166;2023-07-31T20:31:15;11.57;;;3.50;;
15629;SDS011;7914;50.842;0.166;2023-07-31T20:36:10;11.05;;;3.10;;
15629;SDS011;7914;50.842;0.166;2023-07-31T20:38:35;8.18;;;2.78;;
15629;SDS011;7914;50.842;0.166;2023-07-31T20:41:01;12.20;;;3.50;;
15629;SDS011;7914;50.842;0.166;2023-07-31T20:43:27;13.27;;;3.17;;
15629;SDS011;7914;50.842;0.166;2023-07-31T20:45:52;13.82;;;3.30;;
15629;SDS011;7914;50.842;0.166;2023-07-31T20:48:18;9.40;;;2.88;;
15629;SDS011;7914;50.842;0.166;2023-07-31T20:50:44;14.05;;;3.55;;
15629;SDS011;7914;50.842;0.166;2023-07-31T20:53:10;11.45;;;3.08;;
15629;SDS011;7914;50.842;0.166;2023-07-31T20:55:39;13.82;;;3.70;;
15629;SDS011;7914;50.842;0.166;2023-07-31T20:58:06;12.68;;;3.63;;
15629;SDS011;7914;50.842;0.166;2023-07-31T21:00:33;14.52;;;3.50;;
15629;SDS011;7914;50.842;0.166;2023-07-31T21:02:59;12.07;;;4.22;;
15629;SDS011;7914;50.842;0.166;2023-07-31T21:05:25;9.32;;;3.25;;
15629;SDS011;7914;50.842;0.166;2023-07-31T21:07:50;13.38;;;3.83;;
15629;SDS011;7914;50.842;0.166;2023-07-31T21:10:16;11.85;;;4.05;;
15629;SDS011;7914;50.842;0.166;2023-07-31T21:12:42;14.65;;;3.28;;
15629;SDS011;7914;50.842;0.166;2023-07-31T21:15:08;16.88;;;4.63;;
15629;SDS011;7914;50.842;0.166;2023-07-31T21:17:34;14.15;;;4.00;;
15629;SDS011;7914;50.842;0.166;2023-07-31T21:20:01;14.70;;;4.88;;
15629;SDS011;7914;50.842;0.166;2023-07-31T21:22:28;12.82;;;4.22;;
15629;SDS011;7914;50.842;0.166;2023-07-31T21:27:47;12.98;;;4.10;;
15629;SDS011;7914;50.842;0.166;2023-07-31T21:30:13;13.60;;;4.78;;
15629;SDS011;7914;50.842;0.166;2023-07-31T21:32:38;11.52;;;4.55;;
15629;SDS011;7914;50.842;0.166;2023-07-31T21:35:04;14.93;;;4.25;;
15629;SDS011;7914;50.842;0.166;2023-07-31T21:37:30;15.25;;;3.95;;
15629;SDS011;7914;50.842;0.166;2023-07-31T21:39:56;13.77;;;4.57;;
15629;SDS011;7914;50.842;0.166;2023-07-31T21:42:21;14.43;;;4.65;;
15629;SDS011;7914;50.842;0.166;2023-07-31T21:44:47;12.50;;;3.63;;
15629;SDS011;7914;50.842;0.166;2023-07-31T21:47:13;13.38;;;4.22;;
15629;SDS011;7914;50.842;0.166;2023-07-31T21:49:38;17.52;;;4.05;;
15629;SDS011;7914;50.842;0.166;2023-07-31T21:52:04;12.32;;;5.47;;
15629;SDS011;7914;50.842;0.166;2023-07-31T21:54:30;13.20;;;4.40;;
15629;SDS011;7914;50.842;0.166;2023-07-31T21:56:56;13.25;;;4.38;;
15629;SDS011;7914;50.842;0.166;2023-07-31T21:59:21;15.75;;;4.32;;
15629;SDS011;7914;50.842;0.166;2023-07-31T22:01:47;12.98;;;4.10;;
15629;SDS011;7914;50.842;0.166;2023-07-31T22:04:12;16.58;;;4.10;;
15629;SDS011;7914;50.842;0.166;2023-07-31T22:06:38;15.95;;;4.57;;
15629;SDS011;7914;50.842;0.166;2023-07-31T22:09:04;16.83;;;4.80;;
15629;SDS011;7914;50.842;0.166;2023-07-31T22:11:30;14.50;;;5.45;;
15629;SDS011;7914;50.842;0.166;2023-07-31T22:13:55;12.10;;;4.45;;
15629;SDS011;7914;50.842;0.166;2023-07-31T22:16:21;13.80;;;4.70;;
15629;SDS011;7914;50.842;0.166;2023-07-31T22:18:46;13.50;;;4.78;;
15629;SDS011;7914;50.842;0.166;2023-07-31T22:21:12;13.30;;;4.22;;
15629;SDS011;7914;50.842;0.166;2023-07-31T22:23:40;15.27;;;4.30;;
15629;SDS011;7914;50.842;0.166;2023-07-31T22:26:05;14.85;;;4.57;;
15629;SDS011;7914;50.842;0.166;2023-07-31T22:28:31;12.45;;;4.30;;
15629;SDS011;7914;50.842;0.166;2023-07-31T22:30:57;14.13;;;4.25;;
15629;SDS011;7914;50.842;0.166;2023-07-31T22:33:22;14.82;;;5.40;;
15629;SDS011;7914;50.842;0.166;2023-07-31T22:35:48;21.00;;;5.57;;
15629;SDS011;7914;50.842;0.166;2023-07-31T22:38:15;13.60;;;4.80;;
15629;SDS011;7914;50.842;0.166;2023-07-31T22:40:41;15.60;;;4.80;;
15629;SDS011;7914;50.842;0.166;2023-07-31T22:43:07;12.45;;;4.43;;
15629;SDS011;7914;50.842;0.166;2023-07-31T22:45:32;20.27;;;5.78;;
15629;SDS011;7914;50.842;0.166;2023-07-31T22:47:58;11.38;;;4.75;;
15629;SDS011;7914;50.842;0.166;2023-07-31T22:50:23;14.38;;;4.65;;
15629;SDS011;7914;50.842;0.166;2023-07-31T22:52:49;10.57;;;4.63;;
15629;SDS011;7914;50.842;0.166;2023-07-31T22:55:15;12.95;;;4.75;;
15629;SDS011;7914;50.842;0.166;2023-07-31T22:57:41;11.75;;;4.05;;
15629;SDS011;7914;50.842;0.166;2023-07-31T23:00:06;16.98;;;4.50;;
15629;SDS011;7914;50.842;0.166;2023-07-31T23:02:32;12.45;;;3.97;;
15629;SDS011;7914;50.842;0.166;2023-07-31T23:04:58;10.82;;;4.35;;
15629;SDS011;7914;50.842;0.166;2023-07-31T23:07:24;12.43;;;3.70;;
15629;SDS011;7914;50.842;0.166;2023-07-31T23:09:50;12.15;;;4.40;;
15629;SDS011;7914;50.842;0.166;2023-07-31T23:12:17;7.72;;;3.50;;
15629;SDS011;7914;50.842;0.166;2023-07-31T23:14:43;13.82;;;4.07;;
15629;SDS011;7914;50.842;0.166;2023-07-31T23:17:09;10.57;;;3.83;;
15629;SDS011;7914;50.842;0.166;2023-07-31T23:19:35;10.25;;;3.78;;
15629;SDS011;7914;50.842;0.166;2023-07-31T23:22:00;12.88;;;3.78;;
15629;SDS011;7914;50.842;0.166;2023-07-31T23:24:26;15.35;;;4.35;;
15629;SDS011;7914;50.842;0.166;2023-07-31T23:26:51;10.13;;;3.88;;
15629;SDS011;7914;50.842;0.166;2023-07-31T23:29:17;10.40;;;3.75;;
15629;SDS011;7914;50.842;0.166;2023-07-31T23:31:43;11.75;;;3.92;;
